Maxbass, North Dakota
Current Conditions -  °F | °C
As of 4:58 AM on Tuesday 21 Oct 2014 (Local Time) from KMIB Reporting Station
Clear Clear  
Wind Chill: 34°   Ceiling: Unl
Heat Index: 40°   Visibility: 10mi
Dew Point: 36°   Wind: 8mph
Humidity: 86%   Direction: 120°ESE
Pressure: 29.84"   Gusts: NA
Location:  48.72°N, 101.14°W
Report Text: KMIB 210958Z AUTO 12007KT 10SM CLR 04/02 A2984 RMK AO2 SLP113 T00440023 $
Loading
Personal Weather Stations






























Interactive Weather Map
Tropical Storm Tracking
New forecast layout! Learn more

10-Day Weather Forecast

Advertisements
Track Severe Weather on mobile